createdAt,value
2022-12-08T00:01:44.872Z,99144.40
2022-12-08T00:07:06.769Z,99146.80
2022-12-08T00:12:12.579Z,99146.20
2022-12-08T00:17:20.271Z,99145.00
2022-12-08T00:22:23.304Z,99143.60
2022-12-08T00:27:26.233Z,99151.60
2022-12-08T00:32:29.238Z,99159.00
2022-12-08T00:37:32.181Z,99164.20
2022-12-08T00:42:35.210Z,99181.60
2022-12-08T00:47:38.243Z,99191.40
2022-12-08T00:52:41.172Z,99191.00
2022-12-08T00:57:44.172Z,99203.60
2022-12-08T01:02:47.152Z,99208.20
2022-12-08T01:07:50.383Z,99207.60
2022-12-08T01:12:53.386Z,99202.60
2022-12-08T01:17:56.386Z,99204.80
2022-12-08T01:22:59.336Z,99212.20
2022-12-08T01:28:02.321Z,99221.80
2022-12-08T01:33:05.662Z,99223.40
2022-12-08T01:38:08.701Z,99226.80
2022-12-08T01:43:21.498Z,99231.20
2022-12-08T01:48:27.755Z,99234.60
2022-12-08T01:53:33.422Z,99235.00
2022-12-08T01:58:42.963Z,99237.80
2022-12-08T02:04:02.154Z,99240.60
2022-12-08T02:09:07.047Z,99245.80
2022-12-08T02:14:14.121Z,99239.20
2022-12-08T02:19:52.711Z,99247.80
2022-12-08T02:25:10.885Z,99249.80
2022-12-08T02:30:58.143Z,99238.20
2022-12-08T02:36:25.253Z,99247.00
2022-12-08T02:41:53.716Z,99253.20
2022-12-08T02:47:05.344Z,99258.80
2022-12-08T02:52:14.411Z,99266.80
2022-12-08T02:57:48.410Z,99264.80
2022-12-08T03:03:25.021Z,99271.20
2022-12-08T03:09:14.357Z,99278.40
2022-12-08T03:14:18.388Z,99288.00
2022-12-08T03:19:27.798Z,99290.40
2022-12-08T03:24:39.367Z,99282.60
2022-12-08T03:29:42.944Z,99289.80
2022-12-08T03:34:48.794Z,99290.00
2022-12-08T03:39:51.741Z,99295.00
2022-12-08T03:44:54.766Z,99304.60
2022-12-08T03:49:57.676Z,99313.20
2022-12-08T03:55:00.608Z,99321.20
2022-12-08T04:00:06.920Z,99317.00
2022-12-08T04:05:10.499Z,99321.80
2022-12-08T04:10:13.535Z,99326.80
2022-12-08T04:15:16.472Z,99329.20
2022-12-08T04:20:19.367Z,99333.00
2022-12-08T04:25:22.350Z,99340.60
2022-12-08T04:30:25.455Z,99338.00
2022-12-08T04:35:28.778Z,99348.20
2022-12-08T04:40:32.102Z,99347.00
2022-12-08T04:45:35.527Z,99357.20
2022-12-08T04:50:42.237Z,99359.60
2022-12-08T04:55:45.732Z,99363.60
2022-12-08T05:00:49.135Z,99364.40
2022-12-08T05:05:52.153Z,99370.00
2022-12-08T05:11:03.653Z,99374.80
2022-12-08T05:16:14.325Z,99370.20
2022-12-08T05:21:17.353Z,99375.00
2022-12-08T05:26:20.594Z,99378.20
2022-12-08T05:31:23.885Z,99380.00
2022-12-08T05:36:26.890Z,99390.20
2022-12-08T05:41:30.060Z,99387.00
2022-12-08T05:46:33.352Z,99391.60
2022-12-08T05:51:36.457Z,99393.80
2022-12-08T05:56:39.511Z,99398.60
2022-12-08T06:01:42.892Z,99405.40
2022-12-08T06:06:45.966Z,99408.80
2022-12-08T06:11:48.958Z,99415.80
2022-12-08T06:16:51.960Z,99420.20
2022-12-08T06:21:54.995Z,99421.40
2022-12-08T06:26:57.965Z,99431.00
2022-12-08T06:32:00.960Z,99436.60
2022-12-08T06:37:04.004Z,99435.20
2022-12-08T06:42:25.850Z,99443.80
2022-12-08T06:47:28.816Z,99446.40
2022-12-08T06:52:32.046Z,99454.60
2022-12-08T06:57:35.586Z,99456.60
2022-12-08T07:02:39.035Z,99458.20
2022-12-08T07:07:42.251Z,99468.60
2022-12-08T07:12:45.734Z,99478.40
2022-12-08T07:17:49.223Z,99480.80
2022-12-08T07:22:53.218Z,99489.20
2022-12-08T07:27:56.221Z,99490.40
2022-12-08T07:32:59.157Z,99496.80
2022-12-08T07:38:02.528Z,99504.40
2022-12-08T07:43:05.481Z,99510.00
2022-12-08T07:48:08.800Z,99518.40
2022-12-08T07:53:12.478Z,99522.20
2022-12-08T07:58:15.443Z,99526.60
2022-12-08T08:03:18.904Z,99527.80
2022-12-08T08:08:21.913Z,99532.20
2022-12-08T08:13:24.954Z,99532.80
2022-12-08T08:18:27.867Z,99529.80
2022-12-08T08:23:31.006Z,99531.00
2022-12-08T08:28:34.242Z,99535.40
2022-12-08T08:33:37.323Z,99547.20
2022-12-08T08:38:40.356Z,99551.80
2022-12-08T08:43:43.288Z,99555.60
2022-12-08T08:48:46.374Z,99566.60
2022-12-08T08:53:49.910Z,99574.20
2022-12-08T08:58:54.221Z,99573.40
2022-12-08T09:03:57.562Z,99576.60
2022-12-08T09:09:01.599Z,99579.60
2022-12-08T09:14:04.561Z,99581.80
2022-12-08T09:19:07.650Z,99586.00
2022-12-08T09:24:15.721Z,99585.20
2022-12-08T09:29:18.757Z,99584.40
2022-12-08T09:34:21.745Z,99587.40
2022-12-08T09:39:25.138Z,99590.60
2022-12-08T09:45:12.018Z,99590.00
2022-12-08T09:50:23.526Z,99589.40
2022-12-08T09:55:53.928Z,99582.40
2022-12-08T10:00:57.293Z,99578.40
2022-12-08T10:06:39.366Z,99574.60
2022-12-08T10:12:17.390Z,99580.60
2022-12-08T10:17:29.396Z,99574.60
2022-12-08T10:22:38.661Z,99574.80
2022-12-08T10:27:44.579Z,99573.40
2022-12-08T10:32:54.451Z,99575.20
2022-12-08T10:38:04.173Z,99572.00
2022-12-08T10:43:22.118Z,99565.40
2022-12-08T10:48:31.310Z,99564.20
2022-12-08T10:53:49.319Z,99572.60
2022-12-08T10:59:13.267Z,99566.80
2022-12-08T11:04:23.315Z,99561.40
2022-12-08T11:09:48.874Z,99558.40
2022-12-08T11:15:03.107Z,99553.20
2022-12-08T11:20:08.978Z,99545.20
2022-12-08T11:25:25.224Z,99536.40
2022-12-08T11:30:35.958Z,99530.80
2022-12-08T11:35:46.227Z,99524.40
2022-12-08T11:41:15.584Z,99528.20
2022-12-08T11:46:31.675Z,99516.40
2022-12-08T11:51:42.421Z,99511.60
2022-12-08T11:56:50.280Z,99508.60
2022-12-08T12:01:53.723Z,99507.60
2022-12-08T12:07:40.649Z,99498.00
2022-12-08T12:13:10.192Z,99503.80
2022-12-08T12:18:38.920Z,99489.80
2022-12-08T12:23:49.104Z,99485.00
2022-12-08T12:29:00.244Z,99482.20
2022-12-08T12:34:16.939Z,99475.40
2022-12-08T12:39:30.862Z,99465.00
2022-12-08T12:44:33.715Z,99458.00
2022-12-08T12:49:39.373Z,99446.40
2022-12-08T12:54:51.540Z,99444.20
2022-12-08T12:59:55.860Z,99445.20
2022-12-08T13:05:26.481Z,99446.40
2022-12-08T13:11:00.924Z,99444.00
2022-12-08T13:16:18.537Z,99446.40
2022-12-08T13:21:31.696Z,99439.60
2022-12-08T13:26:44.545Z,99438.20
2022-12-08T13:31:56.338Z,99440.00
2022-12-08T13:37:11.357Z,99436.80
2022-12-08T13:42:42.885Z,99431.40
2022-12-08T13:48:30.165Z,99437.00
2022-12-08T13:54:16.282Z,99436.60
2022-12-08T13:59:34.046Z,99442.80
2022-12-08T14:05:09.222Z,99429.60
2022-12-08T14:10:03.779Z,99438.80
2022-12-08T14:15:08.117Z,99443.20
2022-12-08T14:20:46.348Z,99435.60
2022-12-08T14:25:57.110Z,99431.00
2022-12-08T14:31:01.039Z,99431.40
2022-12-08T14:36:04.643Z,99429.20
2022-12-08T14:41:12.014Z,99424.20
2022-12-08T14:46:23.318Z,99424.60
2022-12-08T14:51:33.110Z,99423.60
2022-12-08T14:56:51.852Z,99424.20
2022-12-08T15:02:15.700Z,99425.40
2022-12-08T15:07:27.198Z,99426.80
2022-12-08T15:12:31.985Z,99426.80
2022-12-08T15:18:18.182Z,99427.80
2022-12-08T15:23:31.344Z,99424.20
2022-12-08T15:28:35.365Z,99431.00
2022-12-08T15:33:39.493Z,99433.60
2022-12-08T15:38:44.176Z,99436.20
2022-12-08T15:43:47.440Z,99440.20
2022-12-08T15:48:54.919Z,99430.80
2022-12-08T15:54:00.957Z,99430.60
2022-12-08T15:59:03.950Z,99436.00
2022-12-08T16:04:47.749Z,99432.60
2022-12-08T16:09:38.599Z,99441.80
2022-12-08T16:20:16.932Z,99441.80
2022-12-08T16:25:22.307Z,99438.00
2022-12-08T16:30:26.037Z,99436.00
2022-12-08T16:35:29.493Z,99437.80
2022-12-08T16:40:32.482Z,99443.60
2022-12-08T16:45:41.532Z,99443.20
2022-12-08T16:50:47.670Z,99441.00
2022-12-08T16:55:50.732Z,99439.00
2022-12-08T17:00:53.763Z,99430.40
2022-12-08T17:05:56.691Z,99421.20
2022-12-08T17:11:08.498Z,99426.60
2022-12-08T17:16:19.310Z,99429.60
2022-12-08T17:21:22.415Z,99435.40
2022-12-08T17:26:25.412Z,99432.00
2022-12-08T17:31:31.092Z,99428.40
2022-12-08T17:36:34.526Z,99439.20
2022-12-08T17:41:37.771Z,99437.20
2022-12-08T17:46:45.256Z,99437.00
2022-12-08T17:51:55.233Z,99437.20
2022-12-08T17:56:59.165Z,99440.00
2022-12-08T18:02:02.768Z,99431.00
2022-12-08T18:07:06.193Z,99420.80
2022-12-08T18:12:09.269Z,99417.00
2022-12-08T18:17:12.461Z,99414.00
2022-12-08T18:22:16.160Z,99412.40
2022-12-08T18:27:19.198Z,99408.00
2022-12-08T18:32:23.921Z,99410.20
2022-12-08T18:37:27.024Z,99398.20
2022-12-08T18:42:30.148Z,99396.00
2022-12-08T18:47:40.951Z,99381.60
2022-12-08T18:52:45.772Z,99385.20
2022-12-08T18:57:48.978Z,99382.60
2022-12-08T19:02:52.117Z,99398.60
2022-12-08T19:07:55.143Z,99389.60
2022-12-08T19:12:58.145Z,99387.60
2022-12-08T19:18:01.403Z,99388.20
2022-12-08T19:23:04.403Z,99384.60
2022-12-08T19:28:07.661Z,99386.60
2022-12-08T19:33:10.689Z,99389.60
2022-12-08T19:38:13.637Z,99383.60
2022-12-08T19:43:39.315Z,99377.60
2022-12-08T19:48:42.411Z,99376.80
2022-12-08T19:53:47.772Z,99371.00
2022-12-08T19:58:51.007Z,99371.60
2022-12-08T20:03:54.010Z,99373.80
2022-12-08T20:08:56.992Z,99377.40
2022-12-08T20:13:59.985Z,99379.80
2022-12-08T20:19:03.865Z,99380.40
2022-12-08T20:24:07.316Z,99375.00
2022-12-08T20:29:10.388Z,99370.80
2022-12-08T20:34:19.066Z,99377.20
2022-12-08T20:39:22.044Z,99378.60
2022-12-08T20:44:25.402Z,99379.40
2022-12-08T20:49:34.198Z,99388.20
2022-12-08T20:54:38.127Z,99392.40
2022-12-08T20:59:41.230Z,99392.60
2022-12-08T21:04:44.284Z,99400.40
2022-12-08T21:09:47.844Z,99400.60
2022-12-08T21:14:51.165Z,99401.80
2022-12-08T21:19:54.292Z,99406.00
2022-12-08T21:24:57.276Z,99417.80
2022-12-08T21:30:00.349Z,99418.20
2022-12-08T21:35:03.774Z,99424.40
2022-12-08T21:40:08.708Z,99430.60
2022-12-08T21:45:18.871Z,99434.20
2022-12-08T21:50:22.136Z,99434.80
2022-12-08T21:55:25.136Z,99434.60
2022-12-08T22:00:28.596Z,99443.60
2022-12-08T22:05:32.758Z,99437.60
2022-12-08T22:10:35.989Z,99439.40
2022-12-08T22:15:39.610Z,99443.40
2022-12-08T22:20:44.376Z,99448.80
2022-12-08T22:26:02.544Z,99447.60
2022-12-08T22:31:21.196Z,99453.20
2022-12-08T22:36:26.953Z,99447.40
2022-12-08T22:41:30.056Z,99452.40
2022-12-08T22:46:33.854Z,99458.00
2022-12-08T22:51:37.716Z,99461.00
2022-12-08T22:56:40.931Z,99463.80
2022-12-08T23:01:44.149Z,99466.60
2022-12-08T23:06:47.319Z,99467.40
2022-12-08T23:11:50.574Z,99473.80
2022-12-08T23:16:53.748Z,99471.20
2022-12-08T23:21:56.947Z,99467.00
2022-12-08T23:27:00.286Z,99466.40
2022-12-08T23:32:03.903Z,99468.20
2022-12-08T23:37:07.700Z,99464.00
2022-12-08T23:42:11.138Z,99473.60
2022-12-08T23:47:14.422Z,99473.60
2022-12-08T23:52:17.717Z,99478.80
2022-12-08T23:57:21.878Z,99478.20
